Time;durP1;ratioP1;P1;durP2;ratioP2;P2;SDS_P1;SDS_P2;PMS_P1;PMS_P2;Temp;Humidity;BMP_temperature;BMP_pressure;BME280_temperature;BME280_humidity;BME280_pressure;Samples;Min_cycle;Max_cycle;Signal;HPM_P1;HPM_P2
2023/07/02 00:03:41;;;;;;;6.80;4.50;;;17.80;99.90;;;;;;10348318;28;20205;-80
2023/07/02 00:09:02;;;;;;;4.63;3.63;;;17.70;99.90;;;;;;10339528;28;20268;-81
2023/07/02 00:14:24;;;;;;;5.25;4.30;;;17.60;99.90;;;;;;10338268;28;20236;-80
2023/07/02 00:19:46;;;;;;;6.32;4.10;;;17.60;99.90;;;;;;10354448;28;20189;-81
2023/07/02 00:25:07;;;;;;;5.68;4.35;;;17.60;99.90;;;;;;10340832;28;20247;-80
2023/07/02 00:30:29;;;;;;;6.13;4.78;;;17.60;99.90;;;;;;10361606;28;20189;-80
2023/07/02 00:35:50;;;;;;;7.32;4.68;;;17.60;99.90;;;;;;10337295;28;20249;-81
2023/07/02 00:41:12;;;;;;;5.68;4.32;;;17.50;99.90;;;;;;10342732;28;20201;-80
2023/07/02 00:46:33;;;;;;;7.70;4.53;;;17.40;99.90;;;;;;10360038;28;20211;-81
2023/07/02 00:51:55;;;;;;;5.25;4.70;;;17.40;99.90;;;;;;10354442;28;20303;-80
2023/07/02 00:57:16;;;;;;;6.40;4.90;;;17.40;99.90;;;;;;10360028;28;20197;-80
2023/07/02 01:02:38;;;;;;;7.78;4.47;;;17.30;99.90;;;;;;10349973;28;20207;-80
2023/07/02 01:07:59;;;;;;;6.88;5.13;;;17.40;99.90;;;;;;10357869;28;20243;-80
2023/07/02 01:13:23;;;;;;;5.28;4.70;;;17.30;99.90;;;;;;10328726;28;20527;-80
2023/07/02 01:18:45;;;;;;;5.20;4.70;;;17.30;99.90;;;;;;10304592;28;20213;-81
2023/07/02 01:24:07;;;;;;;6.88;4.93;;;17.30;99.90;;;;;;10337232;28;20194;-80
2023/07/02 01:29:30;;;;;;;7.95;5.07;;;17.20;99.90;;;;;;10315972;28;20243;-80
2023/07/02 01:34:53;;;;;;;7.63;4.93;;;17.20;99.90;;;;;;10357485;28;20220;-81
2023/07/02 01:40:14;;;;;;;5.47;4.88;;;17.20;99.90;;;;;;10352957;28;20232;-80
2023/07/02 01:45:37;;;;;;;5.00;4.40;;;17.20;99.90;;;;;;10357637;28;20197;-80
2023/07/02 01:50:59;;;;;;;5.43;4.10;;;17.20;99.90;;;;;;10348035;28;20203;-81
2023/07/02 01:56:20;;;;;;;6.30;4.32;;;17.10;99.90;;;;;;10357632;28;20193;-80
2023/07/02 02:01:41;;;;;;;4.57;3.70;;;17.10;99.90;;;;;;10342100;28;20394;-80
2023/07/02 02:07:03;;;;;;;6.00;3.58;;;17.10;99.90;;;;;;10370737;28;20311;-80
2023/07/02 02:12:25;;;;;;;6.03;4.25;;;17.00;99.90;;;;;;10355385;28;20220;-80
2023/07/02 02:17:47;;;;;;;6.55;4.13;;;17.00;99.90;;;;;;10369619;28;20210;-80
2023/07/02 02:23:08;;;;;;;4.53;4.00;;;17.00;99.90;;;;;;10371673;28;20233;-80
2023/07/02 02:28:29;;;;;;;6.57;3.88;;;17.00;99.90;;;;;;10364675;28;20283;-80
2023/07/02 02:33:51;;;;;;;5.10;3.70;;;17.10;99.90;;;;;;10328583;28;20255;-80
2023/07/02 02:39:14;;;;;;;6.13;3.60;;;17.10;99.90;;;;;;10347287;28;20216;-81
2023/07/02 02:44:35;;;;;;;4.30;3.70;;;17.10;99.90;;;;;;10341429;28;20207;-81
2023/07/02 02:49:56;;;;;;;5.03;4.10;;;17.10;99.90;;;;;;10364824;28;20224;-80
2023/07/02 02:55:17;;;;;;;4.05;3.65;;;17.00;99.90;;;;;;10367546;28;20462;-80
2023/07/02 03:00:42;;;;;;;4.85;3.90;;;17.00;99.90;;;;;;10353448;28;20207;-80
2023/07/02 03:06:03;;;;;;;5.35;3.72;;;17.00;99.90;;;;;;10327406;28;20201;-80
2023/07/02 03:11:25;;;;;;;4.10;3.13;;;17.00;99.90;;;;;;10339134;28;20204;-80
2023/07/02 03:16:46;;;;;;;4.10;3.55;;;17.10;99.90;;;;;;10339656;28;20219;-81
2023/07/02 03:22:08;;;;;;;4.68;3.28;;;17.00;99.90;;;;;;10340050;28;20251;-80
2023/07/02 03:27:29;;;;;;;4.45;3.15;;;17.00;99.90;;;;;;10355296;28;20219;-80
2023/07/02 03:32:50;;;;;;;4.05;3.15;;;17.00;99.90;;;;;;10325516;28;20225;-80
2023/07/02 03:38:11;;;;;;;2.88;2.58;;;17.00;99.90;;;;;;10354158;28;20340;-79
2023/07/02 03:43:33;;;;;;;2.92;2.20;;;17.00;99.90;;;;;;10352177;28;20260;-80
2023/07/02 03:48:54;;;;;;;2.60;2.40;;;17.10;99.90;;;;;;10335592;28;20208;-80
2023/07/02 03:54:15;;;;;;;2.53;2.00;;;17.20;99.90;;;;;;10326259;28;20227;-80
2023/07/02 03:59:36;;;;;;;1.80;1.70;;;17.30;99.90;;;;;;10354962;28;20252;-80
2023/07/02 04:04:58;;;;;;;2.13;1.75;;;17.30;99.90;;;;;;10362130;28;20208;-81
2023/07/02 04:10:19;;;;;;;3.63;3.08;;;17.30;99.90;;;;;;10356280;28;20227;-80
2023/07/02 04:15:40;;;;;;;2.30;2.08;;;17.30;99.90;;;;;;10347674;28;20288;-80
2023/07/02 04:21:03;;;;;;;2.30;1.92;;;17.30;99.90;;;;;;10346035;28;20307;-81
2023/07/02 04:26:26;;;;;;;2.47;1.95;;;17.30;99.90;;;;;;10361028;28;20198;-80
2023/07/02 04:31:47;;;;;;;1.98;1.83;;;17.30;99.90;;;;;;10341982;28;20209;-81
2023/07/02 04:37:09;;;;;;;1.48;1.38;;;17.30;99.90;;;;;;10332200;28;20195;-80
2023/07/02 04:42:33;;;;;;;1.58;1.27;;;17.40;99.90;;;;;;10361181;28;20228;-80
2023/07/02 04:47:54;;;;;;;1.20;1.10;;;17.40;99.90;;;;;;10355391;28;20209;-80
2023/07/02 04:53:16;;;;;;;2.03;1.27;;;17.50;99.90;;;;;;10345879;28;20532;-80
2023/07/02 04:58:37;;;;;;;1.17;1.08;;;17.50;99.90;;;;;;10355973;28;20205;-80
2023/07/02 05:03:59;;;;;;;1.10;0.90;;;17.40;99.90;;;;;;10360700;28;20208;-79
2023/07/02 05:09:20;;;;;;;0.90;0.82;;;17.40;99.90;;;;;;10355043;28;20400;-79
2023/07/02 05:14:41;;;;;;;1.40;1.30;;;17.40;99.90;;;;;;10319092;28;20237;-80
2023/07/02 05:20:06;;;;;;;1.33;1.10;;;17.40;99.90;;;;;;10323288;28;20213;-80
2023/07/02 05:25:28;;;;;;;0.80;0.80;;;17.40;99.90;;;;;;10344997;28;20251;-80
2023/07/02 05:30:49;;;;;;;0.90;0.90;;;17.40;99.90;;;;;;10354728;28;20388;-80
2023/07/02 05:36:12;;;;;;;1.45;0.73;;;17.40;99.90;;;;;;10339562;28;20384;-80
2023/07/02 05:41:33;;;;;;;1.30;1.20;;;17.50;99.90;;;;;;10353281;28;20416;-80
2023/07/02 05:46:55;;;;;;;1.05;0.90;;;17.60;99.90;;;;;;10358088;28;20220;-80
2023/07/02 05:52:16;;;;;;;1.70;1.08;;;17.50;99.90;;;;;;10338945;28;20221;-80
2023/07/02 05:57:40;;;;;;;1.02;0.93;;;17.50;99.90;;;;;;10354820;28;20251;-80
2023/07/02 06:03:02;;;;;;;1.42;0.93;;;17.50;99.90;;;;;;10319410;28;20266;-81
2023/07/02 06:08:24;;;;;;;4.20;1.35;;;17.50;99.90;;;;;;10333942;28;20246;-80
2023/07/02 06:13:45;;;;;;;1.95;1.23;;;17.60;99.90;;;;;;10307011;28;20606;-80
2023/07/02 06:19:06;;;;;;;1.38;1.20;;;17.60;99.90;;;;;;10328190;28;20527;-80
2023/07/02 06:24:28;;;;;;;1.42;1.33;;;17.50;99.90;;;;;;10356583;28;20279;-80
2023/07/02 06:29:50;;;;;;;2.08;1.38;;;17.40;99.90;;;;;;10348520;28;20452;-80
2023/07/02 06:35:12;;;;;;;1.92;1.40;;;17.40;99.90;;;;;;10369491;28;20605;-80
2023/07/02 06:40:34;;;;;;;1.65;1.42;;;17.50;99.90;;;;;;10348611;28;20209;-80
2023/07/02 06:45:55;;;;;;;4.30;1.60;;;17.60;99.90;;;;;;10328114;28;20364;-80
2023/07/02 06:51:18;;;;;;;4.00;2.20;;;17.60;99.90;;;;;;10340671;28;20202;-80
2023/07/02 06:56:39;;;;;;;3.05;1.75;;;17.70;99.90;;;;;;10341365;28;20428;-80
2023/07/02 07:02:01;;;;;;;2.15;1.95;;;17.90;99.90;;;;;;10351023;28;20211;-81
2023/07/02 07:07:22;;;;;;;3.05;1.83;;;17.90;99.90;;;;;;10334020;28;20311;-81
2023/07/02 07:12:43;;;;;;;4.82;2.03;;;17.90;99.90;;;;;;10347800;28;20403;-80
2023/07/02 07:18:05;;;;;;;5.18;1.90;;;17.90;99.90;;;;;;10354304;28;20284;-80
2023/07/02 07:23:26;;;;;;;3.65;2.00;;;17.80;99.90;;;;;;10349626;28;20206;-80
2023/07/02 07:28:47;;;;;;;4.18;1.92;;;17.70;99.90;;;;;;10318653;28;20471;-80
2023/07/02 07:34:09;;;;;;;2.85;1.55;;;17.70;99.90;;;;;;10349095;28;20232;-80
2023/07/02 07:39:30;;;;;;;2.80;1.55;;;17.60;99.90;;;;;;10337762;28;20420;-79
2023/07/02 07:44:52;;;;;;;3.55;1.80;;;17.60;99.90;;;;;;10367811;28;20193;-80
2023/07/02 07:50:13;;;;;;;3.97;1.90;;;17.70;99.90;;;;;;10321767;28;20214;-80
2023/07/02 07:55:35;;;;;;;2.40;1.80;;;17.90;99.90;;;;;;10367820;28;20232;-80
2023/07/02 08:00:56;;;;;;;2.97;1.83;;;18.40;99.90;;;;;;10348376;28;20283;-80
2023/07/02 08:06:17;;;;;;;6.30;1.75;;;19.10;99.90;;;;;;10326192;28;20260;-80
2023/07/02 08:11:39;;;;;;;3.83;1.85;;;19.10;99.90;;;;;;10329723;28;20209;-80
2023/07/02 08:17:00;;;;;;;3.40;1.80;;;19.30;99.90;;;;;;10312830;28;20248;-80
2023/07/02 08:22:21;;;;;;;6.05;1.90;;;19.80;1.00;;;;;;10329362;28;20208;-80
2023/07/02 08:27:43;;;;;;;2.65;1.67;;;20.50;1.00;;;;;;10353005;28;20203;-80
2023/07/02 08:33:04;;;;;;;3.88;1.90;;;20.20;99.90;;;;;;10349001;28;20256;-80
2023/07/02 08:38:25;;;;;;;3.55;1.55;;;20.90;99.90;;;;;;10353866;28;20190;-80
2023/07/02 08:43:48;;;;;;;5.65;1.90;;;21.60;1.00;;;;;;10339009;28;20286;-80
2023/07/02 08:49:10;;;;;;;6.57;1.67;;;21.70;1.00;;;;;;10358172;28;20218;-79
2023/07/02 08:54:31;;;;;;;4.63;1.70;;;21.30;1.00;;;;;;10331047;28;20416;-81
2023/07/02 08:59:53;;;;;;;5.35;1.90;;;21.20;1.00;;;;;;10328167;28;20575;-81
2023/07/02 09:05:14;;;;;;;11.13;2.13;;;21.80;1.00;;;;;;10359675;28;20198;-81
2023/07/02 09:10:35;;;;;;;5.78;2.10;;;22.30;1.00;;;;;;10357488;28;20242;-80
2023/07/02 09:15:57;;;;;;;6.60;1.80;;;22.20;1.00;;;;;;10305278;28;20238;-80
2023/07/02 09:21:18;;;;;;;3.17;1.95;;;22.80;1.00;;;;;;10324833;28;20280;-81
2023/07/02 09:26:44;;;;;;;4.13;1.90;;;23.60;99.90;;;;;;10358433;28;20532;-80
2023/07/02 09:32:10;;;;;;;5.53;2.10;;;23.50;99.90;;;;;;10371281;28;20210;-80
2023/07/02 09:37:32;;;;;;;8.18;2.13;;;23.60;99.90;;;;;;10344766;28;20190;-80
2023/07/02 09:42:55;;;;;;;6.28;2.13;;;23.70;99.90;;;;;;10342882;28;20206;-81
2023/07/02 09:48:17;;;;;;;4.85;2.22;;;23.90;99.90;;;;;;10358028;28;20213;-79
2023/07/02 09:53:38;;;;;;;4.68;2.25;;;23.00;99.90;;;;;;10355972;28;20217;-81
2023/07/02 09:59:00;;;;;;;5.65;2.35;;;23.10;99.90;;;;;;10356835;28;20220;-80
2023/07/02 10:04:25;;;;;;;3.75;2.20;;;23.80;99.90;;;;;;10372365;28;20531;-79
2023/07/02 10:09:47;;;;;;;4.97;2.20;;;23.80;99.90;;;;;;10368805;28;20244;-80
2023/07/02 10:15:08;;;;;;;2.80;1.98;;;23.20;99.90;;;;;;10331977;28;20233;-80
2023/07/02 10:20:38;;;;;;;3.42;2.42;;;22.60;1.00;;;;;;10323694;28;20197;-80
2023/07/02 10:26:19;;;;;;;3.33;2.00;;;22.40;99.90;;;;;;10356106;28;20280;-81
2023/07/02 10:31:48;;;;;;;5.18;1.98;;;22.30;99.90;;;;;;10350283;28;20332;-80
2023/07/02 10:37:10;;;;;;;4.53;1.95;;;22.20;99.90;;;;;;10329119;28;20229;-81
2023/07/02 10:42:32;;;;;;;3.03;2.22;;;21.80;99.90;;;;;;10337352;28;20229;-81
2023/07/02 10:47:53;;;;;;;3.17;2.20;;;21.70;99.90;;;;;;10328840;28;20194;-81
2023/07/02 10:53:19;;;;;;;4.72;2.10;;;;;;;;;;10301069;28;20297;-80
2023/07/02 10:58:44;;;;;;;6.85;2.67;;;;;;;;;;10336624;28;20236;-80
2023/07/02 11:04:05;;;;;;;7.93;2.75;;;;;;;;;;10354912;28;20197;-80
2023/07/02 11:09:27;;;;;;;4.35;2.70;;;19.60;1.00;;;;;;10367999;28;20237;-80
2023/07/02 11:14:48;;;;;;;5.35;2.70;;;19.90;1.00;;;;;;10317355;28;20226;-80
2023/07/02 11:20:14;;;;;;;7.82;2.80;;;21.30;1.00;;;;;;10314226;28;20217;-81
2023/07/02 11:25:35;;;;;;;3.85;2.15;;;22.20;1.00;;;;;;10325553;28;20210;-81
2023/07/02 11:30:58;;;;;;;8.25;3.13;;;22.40;1.00;;;;;;10355182;28;20196;-78
2023/07/02 11:36:22;;;;;;;4.63;2.75;;;21.70;1.00;;;;;;10336032;28;20237;-81
2023/07/02 11:41:45;;;;;;;4.18;2.65;;;21.30;1.00;;;;;;10352431;28;20420;-81
2023/07/02 11:47:06;;;;;;;6.57;2.75;;;21.20;1.00;;;;;;10339981;28;20228;-80
2023/07/02 11:52:28;;;;;;;8.77;2.70;;;21.40;1.00;;;;;;10353028;28;20193;-81
2023/07/02 11:57:49;;;;;;;4.47;2.60;;;21.40;1.00;;;;;;10348906;28;20201;-80
2023/07/02 12:03:10;;;;;;;6.28;2.80;;;21.20;1.00;;;;;;10326104;28;20264;-81
2023/07/02 12:08:32;;;;;;;5.10;3.05;;;21.10;1.00;;;;;;10349128;28;20254;-80
2023/07/02 12:13:53;;;;;;;5.90;3.13;;;21.30;1.00;;;;;;10339394;28;20538;-80
2023/07/02 12:19:14;;;;;;;3.22;2.33;;;21.50;1.00;;;;;;10357055;28;20197;-81
2023/07/02 12:24:36;;;;;;;7.80;3.33;;;21.60;1.00;;;;;;10356444;28;20201;-80
2023/07/02 12:29:58;;;;;;;5.28;3.10;;;22.00;1.00;;;;;;10321052;28;20214;-80
2023/07/02 12:35:19;;;;;;;9.80;3.08;;;22.40;99.90;;;;;;10333187;28;20276;-81
2023/07/02 12:40:42;;;;;;;13.43;4.78;;;23.10;99.90;;;;;;10346192;28;20208;-81
2023/07/02 12:46:03;;;;;;;6.60;3.65;;;23.10;99.90;;;;;;10360269;28;20197;-81
2023/07/02 12:51:24;;;;;;;6.75;3.58;;;22.60;99.90;;;;;;10343905;28;20214;-80
2023/07/02 12:56:46;;;;;;;6.03;3.10;;;21.90;99.90;;;;;;10360738;28;20249;-81
2023/07/02 13:02:09;;;;;;;11.60;4.10;;;21.30;99.90;;;;;;10359931;28;20456;-81
2023/07/02 13:07:30;;;;;;;9.10;3.90;;;21.10;99.90;;;;;;10370965;28;20240;-80
2023/07/02 13:12:52;;;;;;;8.05;4.22;;;21.30;99.90;;;;;;10352503;28;20439;-81
2023/07/02 13:18:13;;;;;;;14.68;4.22;;;22.10;99.90;;;;;;10304793;28;20249;-81
2023/07/02 13:23:34;;;;;;;8.50;4.35;;;22.20;99.90;;;;;;10340940;28;20221;-80
2023/07/02 13:28:56;;;;;;;10.10;4.97;;;22.30;99.90;;;;;;10371405;28;20198;-80
2023/07/02 13:34:17;;;;;;;10.35;4.13;;;22.10;99.90;;;;;;10344528;28;20544;-81
2023/07/02 13:39:38;;;;;;;8.45;4.05;;;21.60;99.90;;;;;;10357091;28;20224;-81
2023/07/02 13:45:00;;;;;;;8.10;3.50;;;21.60;99.90;;;;;;10374419;28;20201;-81
2023/07/02 13:50:21;;;;;;;13.57;3.95;;;21.50;99.90;;;;;;10339030;28;20205;-81
2023/07/02 13:55:43;;;;;;;6.97;3.60;;;21.30;99.90;;;;;;10343781;28;20300;-80
2023/07/02 14:01:04;;;;;;;11.80;4.15;;;21.60;99.90;;;;;;10357342;28;20523;-81
2023/07/02 14:06:25;;;;;;;8.30;4.10;;;21.70;99.90;;;;;;10353260;28;20233;-80
2023/07/02 14:11:47;;;;;;;9.75;4.10;;;21.80;99.90;;;;;;10356922;28;20285;-81
2023/07/02 14:17:08;;;;;;;10.95;4.35;;;21.80;99.90;;;;;;10305139;28;20301;-81
2023/07/02 14:22:29;;;;;;;8.75;4.90;;;21.80;99.90;;;;;;10335262;28;20202;-80
2023/07/02 14:27:50;;;;;;;6.70;4.15;;;21.80;1.00;;;;;;10356077;28;20499;-80
2023/07/02 14:33:12;;;;;;;11.70;4.20;;;21.80;99.90;;;;;;10351477;28;20508;-81
2023/07/02 14:38:34;;;;;;;9.88;4.20;;;21.50;99.90;;;;;;10340149;28;20194;-81
2023/07/02 14:43:56;;;;;;;10.85;4.43;;;21.20;99.90;;;;;;10317746;28;20277;-80
2023/07/02 14:49:17;;;;;;;11.57;5.20;;;20.80;1.00;;;;;;10344472;28;20492;-80
2023/07/02 14:54:39;;;;;;;12.85;4.93;;;;;;;;;;10315520;28;20221;-80
2023/07/02 15:00:00;;;;;;;11.00;5.40;;;19.70;99.90;;;;;;10314749;28;20198;-80
2023/07/02 15:05:21;;;;;;;10.48;5.13;;;;;;;;;;10347437;28;20527;-80
2023/07/02 15:10:48;;;;;;;11.98;4.80;;;;;;;;;;10321520;28;20525;-80
2023/07/02 15:16:10;;;;;;;10.15;4.82;;;;;;;;;;10342256;28;20233;-80
2023/07/02 15:21:31;;;;;;;10.00;4.97;;;17.90;99.90;;;;;;10329728;28;20198;-80
2023/07/02 15:26:53;;;;;;;10.85;5.30;;;18.20;1.00;;;;;;10341192;28;20201;-81
2023/07/02 15:32:14;;;;;;;11.95;5.03;;;18.30;99.90;;;;;;10352577;28;20209;-80
2023/07/02 15:37:35;;;;;;;10.45;5.18;;;18.70;1.00;;;;;;10332822;28;20275;-80
2023/07/02 15:42:57;;;;;;;11.88;4.90;;;18.60;99.90;;;;;;10367735;28;20198;-80
2023/07/02 15:48:18;;;;;;;12.50;5.43;;;18.60;66.40;;;;;;10349265;28;20231;-80
2023/07/02 15:53:42;;;;;;;9.50;4.53;;;18.80;1.00;;;;;;10351340;28;20218;-80
2023/07/02 15:59:05;;;;;;;8.43;4.80;;;18.60;1.00;;;;;;10357866;28;20193;-80
2023/07/02 16:04:27;;;;;;;9.63;4.65;;;18.50;1.00;;;;;;10368776;28;20420;-80
2023/07/02 16:09:48;;;;;;;10.73;4.93;;;18.50;1.00;;;;;;10361574;28;20257;-79
2023/07/02 16:15:09;;;;;;;11.45;4.40;;;18.10;1.00;;;;;;10332965;28;20315;-81
2023/07/02 16:20:30;;;;;;;12.05;4.25;;;18.10;99.90;;;;;;10335094;28;20260;-80
2023/07/02 16:26:05;;;;;;;6.05;3.38;;;17.70;99.90;;;;;;10326108;28;20200;-80
2023/07/02 16:31:26;;;;;;;11.07;4.53;;;17.80;57.30;;;;;;10342327;28;20431;-80
2023/07/02 16:36:47;;;;;;;10.20;3.78;;;18.00;1.00;;;;;;10360546;28;20228;-80
2023/07/02 16:42:11;;;;;;;6.90;3.63;;;18.00;1.00;;;;;;10360481;28;20217;-80
2023/07/02 16:47:33;;;;;;;10.00;3.20;;;18.20;99.90;;;;;;10355313;28;20228;-80
2023/07/02 16:52:55;;;;;;;5.85;2.80;;;18.10;1.00;;;;;;10360342;28;20190;-81
2023/07/02 16:58:16;;;;;;;8.45;3.70;;;18.20;1.00;;;;;;10359854;28;20205;-80
2023/07/02 17:03:38;;;;;;;11.73;3.53;;;18.30;1.00;;;;;;10354418;28;20205;-80
2023/07/02 17:09:20;;;;;;;13.18;3.88;;;18.20;1.00;;;;;;10345474;28;20305;-81
2023/07/02 17:14:44;;;;;;;9.30;3.13;;;18.00;1.00;;;;;;10357167;28;20406;-80
2023/07/02 17:20:06;;;;;;;8.48;3.00;;;;;;;;;;10335078;28;20261;-80
2023/07/02 17:25:28;;;;;;;9.52;2.83;;;;;;;;;;10334029;28;20436;-80
2023/07/02 17:30:52;;;;;;;6.72;2.60;;;;;;;;;;10358477;28;20240;-80
2023/07/02 17:36:16;;;;;;;8.98;3.25;;;;;;;;;;10358242;28;20229;-80
2023/07/02 17:41:37;;;;;;;15.95;3.03;;;;;;;;;;10358146;28;20492;-80
2023/07/02 17:47:00;;;;;;;5.55;2.85;;;;;;;;;;10370412;28;20248;-80
2023/07/02 17:52:22;;;;;;;5.10;2.88;;;;;;;;;;10358904;28;20203;-80
2023/07/02 17:57:44;;;;;;;8.52;2.75;;;;;;;;;;10371249;28;20237;-81
2023/07/02 18:03:05;;;;;;;5.43;2.67;;;;;;;;;;10352831;28;20207;-80
2023/07/02 18:08:27;;;;;;;5.00;2.63;;;;;;;;;;10343197;28;20429;-80
2023/07/02 18:13:49;;;;;;;7.93;2.83;;;;;;;;;;10356369;28;20454;-80
2023/07/02 18:19:10;;;;;;;6.65;2.28;;;;;;;;;;10302357;28;20288;-82
2023/07/02 18:24:33;;;;;;;4.53;2.13;;;;;;;;;;10310824;28;20209;-80
2023/07/02 18:29:55;;;;;;;4.70;2.45;;;;;;;;;;10331246;28;20255;-80
2023/07/02 18:35:17;;;;;;;4.88;2.35;;;;;;;;;;10356280;28;20260;-80
2023/07/02 18:40:39;;;;;;;8.85;3.03;;;;;;;;;;10355991;28;20207;-80
2023/07/02 18:46:01;;;;;;;5.00;2.33;;;;;;;;;;10337187;28;20287;-80
2023/07/02 18:51:23;;;;;;;5.28;2.00;;;;;;;;;;10355405;28;20197;-81
2023/07/02 18:56:45;;;;;;;6.53;2.85;;;;;;;;;;10355232;28;20228;-80
2023/07/02 19:02:06;;;;;;;5.35;2.33;;;;;;;;;;10334704;28;20196;-80
2023/07/02 19:07:28;;;;;;;6.88;2.55;;;;;;;;;;10342210;28;20233;-80
2023/07/02 19:12:49;;;;;;;3.95;2.28;;;;;;;;;;10338843;28;20208;-80
2023/07/02 19:18:11;;;;;;;8.63;2.83;;;17.00;1.00;;;;;;10349639;28;20419;-80
2023/07/02 19:23:32;;;;;;;6.45;2.55;;;16.90;33.10;;;;;;10354337;28;20435;-80
2023/07/02 19:28:53;;;;;;;6.22;2.97;;;;;;;;;;10340295;28;20208;-80
2023/07/02 19:34:17;;;;;;;5.78;2.65;;;16.50;1.00;;;;;;10366368;28;20232;-80
2023/07/02 19:39:40;;;;;;;5.97;2.42;;;16.40;1.00;;;;;;10347522;28;20199;-80
2023/07/02 19:45:01;;;;;;;7.30;2.10;;;16.30;1.00;;;;;;10340674;28;20205;-80
2023/07/02 19:50:23;;;;;;;6.22;2.50;;;;;;;;;;10349581;28;20207;-80
2023/07/02 19:55:44;;;;;;;5.80;2.42;;;16.10;1.00;;;;;;10367891;28;20243;-80
2023/07/02 20:01:12;;;;;;;5.13;2.38;;;16.10;1.00;;;;;;10350209;28;20289;-80
2023/07/02 20:06:35;;;;;;;7.00;2.35;;;16.10;1.00;;;;;;10312902;28;20598;-80
2023/07/02 20:11:56;;;;;;;4.53;2.28;;;16.00;1.00;;;;;;10313331;28;20197;-80
2023/07/02 20:17:18;;;;;;;5.80;2.55;;;16.00;1.00;;;;;;10324755;28;20232;-80
2023/07/02 20:22:43;;;;;;;6.15;2.20;;;16.00;80.80;;;;;;10353633;28;20209;-80
2023/07/02 20:28:04;;;;;;;5.32;2.70;;;16.00;10.70;;;;;;10339478;28;20209;-81
2023/07/02 20:33:25;;;;;;;7.78;2.80;;;15.90;38.70;;;;;;10337926;28;20390;-80
2023/07/02 20:38:47;;;;;;;7.35;2.63;;;15.90;99.90;;;;;;10354040;28;20224;-80
2023/07/02 20:44:08;;;;;;;4.32;1.98;;;15.90;87.40;;;;;;10347298;28;20274;-80
2023/07/02 20:49:30;;;;;;;6.13;2.25;;;15.80;98.20;;;;;;10363290;28;20391;-80
2023/07/02 20:54:55;;;;;;;7.05;2.70;;;15.70;99.90;;;;;;10331601;28;20562;-81
2023/07/02 21:00:16;;;;;;;3.80;1.80;;;15.60;99.90;;;;;;10346454;28;20204;-79
2023/07/02 21:05:37;;;;;;;5.50;2.03;;;15.60;99.90;;;;;;10358380;28;20520;-80
2023/07/02 21:10:59;;;;;;;2.95;1.90;;;15.60;99.90;;;;;;10359567;28;20252;-80
2023/07/02 21:16:20;;;;;;;6.53;1.90;;;;;;;;;;10337901;28;20229;-80
2023/07/02 21:21:45;;;;;;;4.70;2.33;;;15.50;1.00;;;;;;10373067;28;20192;-80
2023/07/02 21:27:07;;;;;;;4.18;2.50;;;15.50;1.00;;;;;;10359833;28;20204;-80
2023/07/02 21:32:28;;;;;;;9.80;3.05;;;15.40;99.90;;;;;;10353365;28;20201;-80
2023/07/02 21:37:50;;;;;;;6.10;2.60;;;15.50;99.90;;;;;;10372801;28;20227;-80
2023/07/02 21:43:11;;;;;;;6.22;2.55;;;15.50;99.90;;;;;;10339430;28;20213;-80
2023/07/02 21:48:33;;;;;;;8.52;2.63;;;15.40;99.90;;;;;;10339227;28;20209;-80
2023/07/02 21:53:54;;;;;;;8.18;3.58;;;;;;;;;;10356983;28;20221;-80
2023/07/02 21:59:16;;;;;;;6.63;2.83;;;15.10;99.90;;;;;;10357706;28;20196;-80
2023/07/02 22:04:40;;;;;;;4.57;2.63;;;15.00;99.90;;;;;;10359189;28;20429;-80
2023/07/02 22:10:02;;;;;;;5.95;2.80;;;15.00;99.90;;;;;;10357246;28;20235;-80
2023/07/02 22:15:23;;;;;;;5.45;2.75;;;14.90;99.90;;;;;;10329722;28;20232;-81
2023/07/02 22:20:46;;;;;;;10.05;2.80;;;14.90;99.90;;;;;;10348491;28;20209;-80
2023/07/02 22:26:08;;;;;;;5.60;2.75;;;14.90;99.90;;;;;;10356319;28;20295;-80
2023/07/02 22:31:29;;;;;;;4.72;2.70;;;14.80;99.90;;;;;;10365563;28;20199;-79
2023/07/02 22:36:52;;;;;;;5.03;2.45;;;14.70;99.90;;;;;;10325044;28;20271;-81
2023/07/02 22:42:13;;;;;;;5.13;2.78;;;14.70;99.90;;;;;;10356306;28;20191;-80
2023/07/02 22:47:35;;;;;;;9.57;3.15;;;14.70;99.90;;;;;;10368577;28;20521;-80
2023/07/02 22:52:56;;;;;;;5.35;2.40;;;14.70;99.90;;;;;;10355757;28;20192;-80
2023/07/02 22:58:17;;;;;;;6.13;2.60;;;14.70;99.90;;;;;;10355277;28;20405;-80
2023/07/02 23:03:39;;;;;;;4.32;2.65;;;14.70;99.90;;;;;;10353781;28;20206;-80
2023/07/02 23:09:00;;;;;;;4.63;2.67;;;14.70;99.90;;;;;;10354926;28;20283;-80
2023/07/02 23:14:21;;;;;;;7.63;3.22;;;14.70;99.90;;;;;;10340865;28;20203;-80
2023/07/02 23:19:43;;;;;;;5.68;3.05;;;14.70;99.90;;;;;;10353561;28;20213;-81
2023/07/02 23:25:08;;;;;;;6.75;2.88;;;14.80;99.90;;;;;;10355250;28;20195;-80
2023/07/02 23:30:33;;;;;;;8.00;3.35;;;14.90;99.90;;;;;;10352904;28;20412;-80
2023/07/02 23:35:58;;;;;;;5.00;2.97;;;14.90;99.90;;;;;;10356843;28;20505;-80
2023/07/02 23:41:21;;;;;;;6.68;3.25;;;14.90;99.90;;;;;;10354057;28;20274;-78
2023/07/02 23:46:43;;;;;;;5.68;2.50;;;14.90;99.90;;;;;;10349240;28;20214;-78
2023/07/02 23:52:05;;;;;;;6.35;2.85;;;15.00;99.90;;;;;;10354050;28;20204;-78
2023/07/02 23:57:26;;;;;;;6.50;2.83;;;15.00;99.90;;;;;;10353620;28;20234;-79
